Time;durP1;ratioP1;P1;durP2;ratioP2;P2;SDS_P1;SDS_P2;PMS_P1;PMS_P2;Temp;Humidity;BMP_temperature;BMP_pressure;BME280_temperature;BME280_humidity;BME280_pressure;Samples;Min_cycle;Max_cycle;Signal;HPM_P1;HPM_P2
2021/04/29 00:02:09;;;;;;;8.10;7.30;;;11.30;99.90;;;;;;5070626;28;20462;-71
2021/04/29 00:04:37;;;;;;;7.50;6.80;;;11.30;99.90;;;;;;5071334;28;20830;-72
2021/04/29 00:07:03;;;;;;;6.70;6.00;;;11.30;99.90;;;;;;5070687;28;20458;-71
2021/04/29 00:09:30;;;;;;;7.82;6.57;;;11.30;99.90;;;;;;5071168;28;20297;-72
2021/04/29 00:11:56;;;;;;;7.10;6.40;;;11.20;99.90;;;;;;5070167;28;20212;-71
2021/04/29 00:14:22;;;;;;;7.00;6.27;;;11.20;99.90;;;;;;5071310;28;20865;-71
2021/04/29 00:16:49;;;;;;;10.17;7.03;;;11.20;99.90;;;;;;5071086;28;20459;-71
2021/04/29 00:19:15;;;;;;;7.00;6.30;;;11.20;99.90;;;;;;5070518;28;21047;-71
2021/04/29 00:21:42;;;;;;;7.43;6.72;;;11.20;99.90;;;;;;5064531;28;20501;-70
2021/04/29 00:24:09;;;;;;;7.70;6.80;;;11.10;99.90;;;;;;5066338;28;20219;-71
2021/04/29 00:26:35;;;;;;;9.73;7.87;;;11.10;99.90;;;;;;5067231;28;20516;-71
2021/04/29 00:29:01;;;;;;;8.32;7.43;;;11.10;99.90;;;;;;5067100;28;20485;-71
2021/04/29 00:31:29;;;;;;;9.53;7.70;;;11.00;99.90;;;;;;5067786;28;20298;-71
2021/04/29 00:33:56;;;;;;;8.05;7.28;;;11.10;99.90;;;;;;5068089;28;20517;-71
2021/04/29 00:36:22;;;;;;;7.70;7.00;;;11.10;99.90;;;;;;5068545;28;20204;-71
2021/04/29 00:38:49;;;;;;;10.35;8.05;;;11.10;99.90;;;;;;5068532;28;20483;-70
2021/04/29 00:41:15;;;;;;;8.60;7.67;;;11.10;99.90;;;;;;5065975;28;20234;-71
2021/04/29 00:43:42;;;;;;;10.37;7.60;;;11.10;99.90;;;;;;5068463;28;20979;-71
2021/04/29 00:46:12;;;;;;;8.77;6.90;;;11.00;99.90;;;;;;5068282;28;20961;-71
2021/04/29 00:48:40;;;;;;;9.07;7.85;;;11.00;99.90;;;;;;5068608;28;20562;-70
2021/04/29 00:51:06;;;;;;;8.50;7.43;;;11.00;99.90;;;;;;5066436;28;20285;-70
2021/04/29 00:53:35;;;;;;;9.18;8.18;;;11.00;99.90;;;;;;5065446;28;20216;-70
2021/04/29 00:56:03;;;;;;;10.43;7.77;;;10.90;99.90;;;;;;5066060;28;20287;-71
2021/04/29 00:58:29;;;;;;;8.80;7.95;;;11.00;99.90;;;;;;5068886;28;20463;-70
2021/04/29 01:00:55;;;;;;;8.13;7.33;;;11.00;99.90;;;;;;5066698;28;20211;-70
2021/04/29 01:03:31;;;;;;;8.38;7.55;;;11.00;99.90;;;;;;5068627;28;20516;-70
2021/04/29 01:06:05;;;;;;;8.90;7.77;;;11.10;99.90;;;;;;5067948;28;20200;-70
2021/04/29 01:08:39;;;;;;;9.75;7.85;;;11.00;99.90;;;;;;5068359;28;20462;-70
2021/04/29 01:11:14;;;;;;;8.32;7.53;;;11.10;99.90;;;;;;5067501;28;20547;-70
2021/04/29 01:13:44;;;;;;;8.90;8.10;;;11.10;99.90;;;;;;5067135;28;20219;-70
2021/04/29 01:16:12;;;;;;;7.97;7.22;;;11.10;99.90;;;;;;5068860;28;20458;-70
2021/04/29 01:18:39;;;;;;;8.20;6.87;;;11.00;99.90;;;;;;5070196;28;20594;-71
2021/04/29 01:21:11;;;;;;;7.37;6.20;;;11.10;99.90;;;;;;5069620;28;20946;-71
2021/04/29 01:23:57;;;;;;;6.50;5.97;;;11.10;99.90;;;;;;5069976;28;20506;-70
2021/04/29 01:26:45;;;;;;;5.27;4.80;;;11.10;99.90;;;;;;5070248;28;20227;-70
2021/04/29 01:29:13;;;;;;;5.68;5.07;;;11.20;99.90;;;;;;5069713;28;20484;-70
2021/04/29 01:31:42;;;;;;;5.20;4.50;;;11.10;99.90;;;;;;5069616;28;20341;-71
2021/04/29 01:34:13;;;;;;;5.87;4.17;;;11.10;99.90;;;;;;5069664;28;20475;-71
2021/04/29 01:36:41;;;;;;;4.63;3.80;;;11.20;99.90;;;;;;5069799;28;20466;-71
2021/04/29 01:39:10;;;;;;;5.15;4.40;;;11.20;99.90;;;;;;5069661;28;20232;-71
2021/04/29 01:41:38;;;;;;;6.20;3.37;;;11.20;99.90;;;;;;5069277;28;20205;-70
2021/04/29 01:44:06;;;;;;;4.22;3.50;;;11.20;99.90;;;;;;5069530;28;20517;-70
2021/04/29 01:46:33;;;;;;;4.80;3.43;;;11.30;99.90;;;;;;5069364;28;20211;-70
2021/04/29 01:49:00;;;;;;;4.40;3.15;;;11.20;99.90;;;;;;5070069;28;20478;-70
2021/04/29 01:51:27;;;;;;;3.40;3.10;;;11.20;99.90;;;;;;5068980;28;20200;-72
2021/04/29 01:53:53;;;;;;;3.10;2.80;;;11.20;99.90;;;;;;5069714;28;20216;-70
2021/04/29 01:56:20;;;;;;;3.28;2.80;;;11.20;99.90;;;;;;5062668;28;20470;-69
2021/04/29 01:58:46;;;;;;;3.53;2.80;;;11.30;99.90;;;;;;5068295;28;20774;-71
2021/04/29 02:01:14;;;;;;;2.90;2.70;;;11.30;99.90;;;;;;5067828;28;20196;-71
2021/04/29 02:03:40;;;;;;;2.70;2.50;;;11.30;99.90;;;;;;5067390;28;20211;-70
2021/04/29 02:06:06;;;;;;;2.10;1.90;;;11.30;99.90;;;;;;5067736;28;21136;-70
2021/04/29 02:08:33;;;;;;;4.60;2.70;;;11.30;99.90;;;;;;5065633;28;20494;-70
2021/04/29 02:11:00;;;;;;;2.63;2.42;;;11.30;99.90;;;;;;5067917;28;20458;-71
2021/04/29 02:13:28;;;;;;;2.70;2.50;;;11.30;99.90;;;;;;5059544;28;20220;-70
2021/04/29 02:16:01;;;;;;;3.00;2.70;;;11.20;99.90;;;;;;5068323;28;20536;-70
2021/04/29 02:18:30;;;;;;;2.43;2.23;;;11.20;99.90;;;;;;5067156;28;20208;-69
2021/04/29 02:20:58;;;;;;;2.70;2.47;;;11.20;99.90;;;;;;5067027;28;20454;-69
2021/04/29 02:23:25;;;;;;;2.50;2.00;;;11.20;99.90;;;;;;5069288;28;20508;-70
2021/04/29 02:25:53;;;;;;;2.17;1.97;;;11.10;99.90;;;;;;5069318;28;20793;-69
2021/04/29 02:28:21;;;;;;;2.13;1.80;;;11.20;99.90;;;;;;5068911;28;20457;-70
2021/04/29 02:30:49;;;;;;;1.60;1.50;;;11.20;99.90;;;;;;5068667;28;20647;-70
2021/04/29 02:33:16;;;;;;;2.50;1.60;;;11.20;99.90;;;;;;5068946;28;20493;-70
2021/04/29 02:35:45;;;;;;;1.87;1.63;;;11.20;99.90;;;;;;5069209;28;20204;-70
2021/04/29 02:38:13;;;;;;;1.65;1.55;;;11.20;99.90;;;;;;5069608;28;20969;-69
2021/04/29 02:40:40;;;;;;;2.13;1.92;;;11.20;99.90;;;;;;5068747;28;20248;-70
2021/04/29 02:43:06;;;;;;;1.90;1.80;;;11.10;99.90;;;;;;5069056;28;20215;-69
2021/04/29 02:45:33;;;;;;;2.67;2.20;;;11.10;99.90;;;;;;5070007;28;20470;-70
2021/04/29 02:48:00;;;;;;;2.10;1.90;;;11.10;99.90;;;;;;5073304;28;20462;-69
2021/04/29 02:50:26;;;;;;;1.95;1.67;;;11.10;99.90;;;;;;5072641;28;20220;-69
2021/04/29 02:52:53;;;;;;;2.67;2.42;;;11.10;99.90;;;;;;5072990;28;20223;-70
2021/04/29 02:55:21;;;;;;;3.20;2.10;;;11.10;99.90;;;;;;5065721;28;20281;-69
2021/04/29 02:57:48;;;;;;;2.10;1.90;;;11.10;99.90;;;;;;5069110;28;20462;-69
2021/04/29 03:00:16;;;;;;;2.22;1.83;;;11.10;99.90;;;;;;5069501;28;20224;-69
2021/04/29 03:02:42;;;;;;;2.20;2.00;;;11.20;99.90;;;;;;5071393;28;20200;-70
2021/04/29 03:05:11;;;;;;;1.50;1.40;;;11.30;99.90;;;;;;5071208;28;20208;-70
2021/04/29 03:07:38;;;;;;;2.00;1.80;;;11.30;99.90;;;;;;5069344;28;20462;-70
2021/04/29 03:10:07;;;;;;;1.70;1.60;;;11.30;99.90;;;;;;5070931;28;20641;-70
2021/04/29 03:12:33;;;;;;;1.67;1.53;;;11.40;99.90;;;;;;5063627;28;20594;-70
2021/04/29 03:14:59;;;;;;;1.90;1.47;;;11.30;99.90;;;;;;5068662;28;20984;-69
2021/04/29 03:17:26;;;;;;;1.65;1.45;;;11.30;99.90;;;;;;5070373;28;20454;-69
2021/04/29 03:19:52;;;;;;;1.43;1.13;;;11.20;99.90;;;;;;5070754;28;20228;-70
2021/04/29 03:22:19;;;;;;;1.30;1.10;;;11.20;99.90;;;;;;5071502;28;20834;-70
2021/04/29 03:24:45;;;;;;;3.45;1.15;;;11.20;99.90;;;;;;5072579;28;20458;-70
2021/04/29 03:27:12;;;;;;;1.10;1.00;;;11.20;99.90;;;;;;5072025;28;20568;-70
2021/04/29 03:29:38;;;;;;;4.70;1.20;;;11.20;99.90;;;;;;5072165;28;20594;-70
2021/04/29 03:32:05;;;;;;;1.00;0.90;;;11.20;99.90;;;;;;5071494;28;20496;-70
2021/04/29 03:34:31;;;;;;;1.70;1.05;;;11.20;99.90;;;;;;5072472;28;20243;-71
2021/04/29 03:36:57;;;;;;;3.28;1.50;;;11.20;99.90;;;;;;5072049;28;20200;-70
2021/04/29 03:39:23;;;;;;;1.48;1.00;;;11.20;99.90;;;;;;5070579;28;20224;-70
2021/04/29 03:41:50;;;;;;;1.05;0.88;;;11.20;99.90;;;;;;5071135;28;20274;-71
2021/04/29 03:44:17;;;;;;;2.27;0.90;;;11.10;99.90;;;;;;5071275;28;20197;-71
2021/04/29 03:46:43;;;;;;;1.70;1.10;;;11.10;99.90;;;;;;5071894;28;20461;-71
2021/04/29 03:49:09;;;;;;;1.57;0.87;;;11.00;99.90;;;;;;5071998;28;20530;-72
2021/04/29 03:51:36;;;;;;;1.15;0.80;;;11.00;99.90;;;;;;5071284;28;20454;-71
2021/04/29 03:54:02;;;;;;;0.97;0.87;;;11.00;99.90;;;;;;5064040;28;20235;-70
2021/04/29 03:56:28;;;;;;;2.97;1.20;;;11.00;99.90;;;;;;5068097;28;20454;-71
2021/04/29 03:58:55;;;;;;;1.90;1.30;;;10.90;99.90;;;;;;5068604;28;20469;-69
2021/04/29 04:01:22;;;;;;;3.27;1.10;;;10.90;99.90;;;;;;5069231;28;20246;-69
2021/04/29 04:03:48;;;;;;;1.90;1.08;;;10.80;99.90;;;;;;5068988;28;20459;-69
2021/04/29 04:06:14;;;;;;;1.25;0.90;;;10.80;99.90;;;;;;5068051;28;20192;-69
2021/04/29 04:08:40;;;;;;;1.17;1.00;;;10.80;99.90;;;;;;5068476;28;20223;-69
2021/04/29 04:11:06;;;;;;;1.75;1.10;;;10.80;99.90;;;;;;5067176;28;20200;-69
2021/04/29 04:13:36;;;;;;;2.03;1.20;;;10.80;99.90;;;;;;5069116;28;20213;-69
2021/04/29 04:16:03;;;;;;;4.00;1.50;;;10.70;99.90;;;;;;5070202;28;20469;-69
2021/04/29 04:18:30;;;;;;;2.10;1.30;;;10.70;99.90;;;;;;5070099;28;21088;-69
2021/04/29 04:20:56;;;;;;;1.50;1.40;;;10.70;99.90;;;;;;5067821;28;20570;-69
2021/04/29 04:23:22;;;;;;;2.00;1.53;;;10.70;99.90;;;;;;5071232;28;20820;-69
2021/04/29 04:25:49;;;;;;;2.75;2.28;;;10.70;99.90;;;;;;5069425;28;20458;-69
2021/04/29 04:28:15;;;;;;;1.80;1.20;;;10.60;99.90;;;;;;5069566;28;20266;-69
2021/04/29 04:30:41;;;;;;;1.70;1.60;;;10.60;99.90;;;;;;5068909;28;20224;-69
2021/04/29 04:33:07;;;;;;;1.60;1.48;;;10.50;99.90;;;;;;5068535;28;20260;-69
2021/04/29 04:35:34;;;;;;;1.75;1.23;;;10.40;99.90;;;;;;5069115;28;20207;-69
2021/04/29 04:38:01;;;;;;;1.65;1.52;;;10.50;99.90;;;;;;5066027;28;20193;-69
2021/04/29 04:40:27;;;;;;;2.03;1.30;;;10.50;99.90;;;;;;5066983;28;20220;-69
2021/04/29 04:42:54;;;;;;;1.55;1.45;;;10.40;99.90;;;;;;5068414;28;20494;-69
2021/04/29 04:45:21;;;;;;;2.10;1.90;;;10.40;99.90;;;;;;5067933;28;20211;-70
2021/04/29 04:47:47;;;;;;;3.65;1.42;;;10.40;99.90;;;;;;5067848;28;20208;-69
2021/04/29 04:50:13;;;;;;;2.75;1.80;;;10.50;99.90;;;;;;5067797;28;20228;-69
2021/04/29 04:52:40;;;;;;;1.90;1.65;;;10.50;99.90;;;;;;5067696;28;20856;-69
2021/04/29 04:55:07;;;;;;;1.60;1.50;;;10.50;99.90;;;;;;5067952;28;20676;-68
2021/04/29 04:57:34;;;;;;;1.70;1.50;;;10.40;99.90;;;;;;5067929;28;20208;-69
2021/04/29 05:00:00;;;;;;;4.23;2.20;;;10.50;99.90;;;;;;5067351;28;20478;-70
2021/04/29 05:02:26;;;;;;;2.60;2.20;;;10.50;99.90;;;;;;5065597;28;20484;-69
2021/04/29 05:04:53;;;;;;;3.03;1.88;;;10.50;99.90;;;;;;5067830;28;20201;-69
2021/04/29 05:07:19;;;;;;;3.33;2.30;;;10.50;99.90;;;;;;5067615;28;20208;-69
2021/04/29 05:09:46;;;;;;;2.35;2.05;;;10.50;99.90;;;;;;5066941;28;20275;-69
2021/04/29 05:12:13;;;;;;;2.30;2.10;;;10.50;99.90;;;;;;5066740;28;20693;-70
2021/04/29 05:14:39;;;;;;;2.97;2.03;;;10.50;99.90;;;;;;5067551;28;20277;-70
2021/04/29 05:17:06;;;;;;;2.63;2.42;;;10.60;99.90;;;;;;5067447;28;20204;-70
2021/04/29 05:19:32;;;;;;;3.10;2.80;;;10.60;99.90;;;;;;5067382;28;20220;-70
2021/04/29 05:21:59;;;;;;;3.05;2.70;;;10.60;99.90;;;;;;5066469;28;20211;-69
2021/04/29 05:24:26;;;;;;;2.83;2.63;;;10.60;99.90;;;;;;5067813;28;20216;-70
2021/04/29 05:26:53;;;;;;;4.18;2.63;;;10.60;99.90;;;;;;5067861;28;20215;-69
2021/04/29 05:29:20;;;;;;;4.17;2.60;;;10.50;99.90;;;;;;5066568;28;20328;-70
2021/04/29 05:31:47;;;;;;;4.18;2.45;;;10.40;99.90;;;;;;5067041;28;20542;-70
2021/04/29 05:34:13;;;;;;;4.55;2.72;;;10.50;99.90;;;;;;5079954;28;20315;-70
2021/04/29 05:36:40;;;;;;;2.58;2.38;;;10.50;99.90;;;;;;5087591;28;20650;-70
2021/04/29 05:39:06;;;;;;;2.75;2.35;;;10.40;99.90;;;;;;5087148;28;20220;-70
2021/04/29 05:41:33;;;;;;;3.13;2.30;;;10.30;99.90;;;;;;5086905;28;20257;-69
2021/04/29 05:44:00;;;;;;;3.10;2.63;;;10.30;99.90;;;;;;5087210;28;20212;-70
2021/04/29 05:46:27;;;;;;;3.95;2.80;;;10.30;99.90;;;;;;5087022;28;20199;-70
2021/04/29 05:48:53;;;;;;;3.45;3.03;;;10.30;99.90;;;;;;5087208;28;20227;-70
2021/04/29 05:51:20;;;;;;;4.43;2.70;;;10.30;99.90;;;;;;5086452;28;20290;-70
2021/04/29 05:53:46;;;;;;;3.35;3.00;;;10.30;99.90;;;;;;5087442;28;20872;-70
2021/04/29 05:56:14;;;;;;;4.78;2.85;;;10.30;99.90;;;;;;5087398;28;20207;-70
2021/04/29 05:58:41;;;;;;;5.53;3.05;;;10.30;99.90;;;;;;5086676;28;20234;-69
2021/04/29 06:01:10;;;;;;;3.50;3.00;;;10.30;99.90;;;;;;5086676;28;20283;-70
2021/04/29 06:03:37;;;;;;;3.78;2.97;;;10.40;99.90;;;;;;5086549;28;20215;-70
2021/04/29 06:06:04;;;;;;;4.03;2.95;;;10.50;99.90;;;;;;5082167;28;20204;-70
2021/04/29 06:08:31;;;;;;;4.30;2.92;;;10.50;99.90;;;;;;5065760;28;20192;-69
2021/04/29 06:10:57;;;;;;;4.35;3.63;;;10.50;99.90;;;;;;5065697;28;20208;-70
2021/04/29 06:13:23;;;;;;;6.35;2.92;;;10.50;99.90;;;;;;5065937;28;20240;-69
2021/04/29 06:15:49;;;;;;;3.60;3.30;;;10.60;99.90;;;;;;5066408;28;20208;-69
2021/04/29 06:18:16;;;;;;;3.97;3.58;;;10.60;99.90;;;;;;5066202;28;20249;-70
2021/04/29 06:20:43;;;;;;;3.50;2.90;;;10.60;99.90;;;;;;5065174;28;20711;-69
2021/04/29 06:23:09;;;;;;;3.63;3.27;;;10.60;99.90;;;;;;5066111;28;20462;-69
2021/04/29 06:25:36;;;;;;;4.40;3.33;;;10.70;99.90;;;;;;5066075;28;20809;-69
2021/04/29 06:28:02;;;;;;;3.50;3.20;;;10.80;99.90;;;;;;5065939;28;20204;-70
2021/04/29 06:30:28;;;;;;;3.40;3.10;;;10.90;99.90;;;;;;5065093;28;20328;-69
2021/04/29 06:32:54;;;;;;;3.35;3.00;;;11.00;99.90;;;;;;5065939;28;20224;-70
2021/04/29 06:35:22;;;;;;;3.60;3.08;;;11.10;99.90;;;;;;5066261;28;20211;-70
2021/04/29 06:37:48;;;;;;;3.80;3.50;;;11.10;99.90;;;;;;5064253;28;20201;-70
2021/04/29 06:40:14;;;;;;;5.10;3.93;;;11.20;99.90;;;;;;5065289;28;20224;-70
2021/04/29 06:42:41;;;;;;;4.20;3.13;;;11.20;99.90;;;;;;5066019;28;20467;-70
2021/04/29 06:45:08;;;;;;;8.90;3.40;;;11.20;99.90;;;;;;5065720;28;20473;-70
2021/04/29 06:47:34;;;;;;;5.43;4.93;;;11.20;99.90;;;;;;5066190;28;20467;-70
2021/04/29 06:50:01;;;;;;;4.93;3.83;;;11.30;99.90;;;;;;5065875;28;20890;-69
2021/04/29 06:52:28;;;;;;;6.70;4.20;;;11.40;99.90;;;;;;5065215;28;21041;-70
2021/04/29 06:54:54;;;;;;;4.13;3.37;;;11.40;99.90;;;;;;5066395;28;21028;-70
2021/04/29 06:57:20;;;;;;;5.40;4.10;;;11.50;99.90;;;;;;5056793;28;20845;-70
2021/04/29 06:59:46;;;;;;;4.30;3.50;;;11.70;99.90;;;;;;5064084;28;20493;-69
2021/04/29 07:02:13;;;;;;;4.50;3.70;;;11.80;99.90;;;;;;5063041;28;20458;-69
2021/04/29 07:04:39;;;;;;;4.90;3.70;;;12.00;99.90;;;;;;5059467;28;20948;-69
2021/04/29 07:07:06;;;;;;;7.00;4.80;;;12.20;99.90;;;;;;5060945;28;20504;-70
2021/04/29 07:09:33;;;;;;;5.63;4.77;;;12.50;99.90;;;;;;5059193;28;21009;-69
2021/04/29 07:12:00;;;;;;;4.03;3.37;;;12.70;99.90;;;;;;5060970;28;20459;-70
2021/04/29 07:14:26;;;;;;;4.93;4.50;;;12.80;99.90;;;;;;5060601;28;20535;-70
2021/04/29 07:16:53;;;;;;;4.70;3.73;;;12.80;99.90;;;;;;5060747;28;20520;-69
2021/04/29 07:19:19;;;;;;;3.70;3.40;;;13.00;99.90;;;;;;5060579;28;20517;-70
2021/04/29 07:21:46;;;;;;;4.10;3.70;;;13.10;99.90;;;;;;5060783;28;20478;-70
2021/04/29 07:24:12;;;;;;;5.00;3.80;;;13.20;99.90;;;;;;5057971;28;20519;-70
2021/04/29 07:26:39;;;;;;;4.50;4.03;;;13.20;99.90;;;;;;5055702;28;20834;-70
2021/04/29 07:29:05;;;;;;;4.80;4.30;;;13.20;99.90;;;;;;5061155;28;20490;-70
2021/04/29 07:31:32;;;;;;;5.03;3.83;;;13.10;99.90;;;;;;5061291;28;20466;-70
2021/04/29 07:33:58;;;;;;;6.00;4.30;;;13.10;99.90;;;;;;5063481;28;20486;-69
2021/04/29 07:36:25;;;;;;;4.37;3.97;;;13.20;99.90;;;;;;5063748;28;20466;-70
2021/04/29 07:38:51;;;;;;;6.47;5.27;;;13.10;99.90;;;;;;5064878;28;20478;-71
2021/04/29 07:41:19;;;;;;;4.93;4.53;;;13.00;99.90;;;;;;5065515;28;20470;-70
2021/04/29 07:43:46;;;;;;;5.63;4.60;;;13.10;99.90;;;;;;5064682;28;20466;-70
2021/04/29 07:46:13;;;;;;;6.73;5.73;;;13.30;99.90;;;;;;5062401;28;20466;-70
2021/04/29 07:48:39;;;;;;;5.00;4.43;;;13.30;99.90;;;;;;5063846;28;20473;-70
2021/04/29 07:51:05;;;;;;;6.77;5.27;;;13.50;99.90;;;;;;5063868;28;20458;-70
2021/04/29 07:53:31;;;;;;;6.73;6.03;;;13.70;99.90;;;;;;5064434;28;20681;-70
2021/04/29 07:55:59;;;;;;;6.10;5.50;;;13.70;99.90;;;;;;5062847;28;20470;-70
2021/04/29 07:58:25;;;;;;;7.30;6.60;;;13.70;99.90;;;;;;5063251;28;20465;-69
2021/04/29 08:00:53;;;;;;;7.13;6.30;;;13.60;99.90;;;;;;5065151;28;20454;-69
2021/04/29 08:03:19;;;;;;;7.40;6.30;;;13.60;99.90;;;;;;5065002;28;20458;-69
2021/04/29 08:05:46;;;;;;;5.47;4.90;;;13.60;99.90;;;;;;5063443;28;20462;-70
2021/04/29 08:08:12;;;;;;;7.57;6.77;;;13.80;99.90;;;;;;5064290;28;20458;-70
2021/04/29 08:10:41;;;;;;;12.70;6.67;;;13.90;99.90;;;;;;5063511;28;20993;-70
2021/04/29 08:13:07;;;;;;;7.10;6.20;;;14.20;99.90;;;;;;5064521;28;20501;-70
2021/04/29 08:15:33;;;;;;;7.07;5.73;;;14.60;99.90;;;;;;5061213;28;20470;-71
2021/04/29 08:18:00;;;;;;;9.13;6.70;;;14.80;99.90;;;;;;5065098;28;20973;-70
2021/04/29 08:20:27;;;;;;;8.37;6.20;;;14.90;99.90;;;;;;5062824;28;20497;-69
2021/04/29 08:22:53;;;;;;;6.37;5.43;;;15.00;99.90;;;;;;5064698;28;20867;-69
2021/04/29 08:25:19;;;;;;;7.30;6.60;;;15.20;99.90;;;;;;5061890;28;20458;-69
2021/04/29 08:27:46;;;;;;;8.03;6.13;;;15.50;99.90;;;;;;5063738;28;20519;-70
2021/04/29 08:30:13;;;;;;;8.90;6.90;;;15.90;99.90;;;;;;5063504;28;20478;-70
2021/04/29 08:32:39;;;;;;;6.60;5.60;;;16.10;99.40;;;;;;5063300;28;20470;-69
2021/04/29 08:35:08;;;;;;;8.20;6.17;;;16.30;99.80;;;;;;5061263;28;20856;-70
2021/04/29 08:37:34;;;;;;;11.43;6.57;;;16.30;98.20;;;;;;5063769;28;20462;-70
2021/04/29 08:40:01;;;;;;;7.73;6.50;;;15.80;99.00;;;;;;5063049;28;20829;-70
2021/04/29 08:42:28;;;;;;;6.93;5.77;;;15.80;98.50;;;;;;5062706;28;20821;-70
2021/04/29 08:44:55;;;;;;;7.20;6.50;;;15.90;98.50;;;;;;5062102;28;20462;-69
2021/04/29 08:47:21;;;;;;;11.17;6.80;;;16.10;98.70;;;;;;5059606;28;20471;-69
2021/04/29 08:49:48;;;;;;;7.00;6.30;;;16.50;97.30;;;;;;5065178;28;20486;-69
2021/04/29 08:52:16;;;;;;;7.83;6.23;;;17.10;96.60;;;;;;5064890;28;21277;-70
2021/04/29 08:54:46;;;;;;;6.87;6.10;;;17.50;95.10;;;;;;5065492;28;20498;-69
2021/04/29 08:57:12;;;;;;;7.03;5.80;;;17.90;95.90;;;;;;5061635;28;20842;-70
2021/04/29 08:59:38;;;;;;;9.07;6.60;;;18.40;95.40;;;;;;5125958;22;21559;-70
2021/04/29 09:02:05;;;;;;;6.83;6.23;;;18.40;93.10;;;;;;5084967;28;20458;-70
2021/04/29 09:04:39;;;;;;;9.83;6.23;;;17.90;92.90;;;;;;5083604;28;20453;-71
2021/04/29 09:07:12;;;;;;;6.67;5.83;;;17.40;93.80;;;;;;5083037;28;20464;-70
2021/04/29 09:09:42;;;;;;;6.60;5.73;;;16.90;94.10;;;;;;5073810;28;20506;-70
2021/04/29 09:12:08;;;;;;;11.47;6.20;;;16.60;94.90;;;;;;5064042;28;20677;-70
2021/04/29 09:14:36;;;;;;;6.87;5.90;;;16.30;94.70;;;;;;5064223;28;21017;-70
2021/04/29 09:17:03;;;;;;;7.10;5.37;;;15.90;95.20;;;;;;5062311;28;20949;-70
2021/04/29 09:19:32;;;;;;;6.37;5.40;;;15.90;96.70;;;;;;5062476;28;20657;-70
2021/04/29 09:21:59;;;;;;;6.77;5.43;;;16.30;95.40;;;;;;5062363;28;20520;-70
2021/04/29 09:24:36;;;;;;;6.70;6.10;;;16.80;96.00;;;;;;5064408;28;21016;-70
2021/04/29 09:27:11;;;;;;;6.63;5.57;;;16.70;94.20;;;;;;5061577;28;20469;-70
2021/04/29 09:29:47;;;;;;;5.93;5.33;;;16.90;94.90;;;;;;5064101;28;20993;-69
2021/04/29 09:32:25;;;;;;;6.10;5.50;;;16.90;94.60;;;;;;5062733;28;20454;-69
2021/04/29 09:34:51;;;;;;;6.70;6.07;;;16.80;94.30;;;;;;5062567;28;21093;-70
2021/04/29 09:37:30;;;;;;;6.17;4.80;;;16.50;94.90;;;;;;5062622;28;20454;-69
2021/04/29 09:39:56;;;;;;;5.90;5.20;;;15.90;95.60;;;;;;5063855;28;20517;-69
2021/04/29 09:42:35;;;;;;;5.17;4.67;;;15.30;95.90;;;;;;5062882;28;20661;-70
2021/04/29 09:45:04;;;;;;;7.60;5.00;;;14.80;97.40;;;;;;5063057;28;20454;-68
2021/04/29 09:47:30;;;;;;;5.20;4.70;;;14.30;97.90;;;;;;5063240;28;20454;-69
2021/04/29 09:49:57;;;;;;;5.73;5.13;;;14.00;99.80;;;;;;5064539;28;20513;-69
2021/04/29 09:52:25;;;;;;;6.27;4.63;;;13.90;99.90;;;;;;5067111;28;20462;-69
2021/04/29 09:54:52;;;;;;;5.80;5.20;;;13.90;99.90;;;;;;5063055;28;20492;-69
2021/04/29 09:57:23;;;;;;;9.93;6.03;;;14.00;99.90;;;;;;5060169;28;20482;-69
2021/04/29 09:59:55;;;;;;;6.43;5.83;;;14.10;99.90;;;;;;5064847;28;20548;-68
2021/04/29 10:02:21;;;;;;;8.63;5.43;;;14.80;99.90;;;;;;5063874;28;20483;-69
2021/04/29 10:04:49;;;;;;;5.67;5.07;;;16.00;99.20;;;;;;5064537;28;20454;-69
2021/04/29 10:07:16;;;;;;;7.10;5.50;;;17.50;97.90;;;;;;5064891;28;20528;-69
2021/04/29 10:09:43;;;;;;;6.37;5.30;;;18.70;96.30;;;;;;5063903;28;20487;-69
2021/04/29 10:12:11;;;;;;;6.37;5.53;;;19.60;94.50;;;;;;5063977;28;20466;-69
2021/04/29 10:14:41;;;;;;;5.60;5.10;;;20.60;94.10;;;;;;5064427;28;20941;-69
2021/04/29 10:17:10;;;;;;;6.17;4.97;;;21.40;90.90;;;;;;5063860;28;20999;-69
2021/04/29 10:19:39;;;;;;;5.60;5.00;;;21.10;92.10;;;;;;5064136;28;20482;-69
2021/04/29 10:22:06;;;;;;;7.37;5.40;;;20.90;89.50;;;;;;5063906;28;20458;-69
2021/04/29 10:24:34;;;;;;;5.13;4.70;;;20.40;89.30;;;;;;5084727;28;20463;-69
2021/04/29 10:27:02;;;;;;;6.90;5.80;;;19.90;90.90;;;;;;5084588;28;20897;-69
2021/04/29 10:29:29;;;;;;;7.40;5.83;;;19.50;90.10;;;;;;5084513;28;20926;-70
2021/04/29 10:31:59;;;;;;;6.53;5.87;;;19.20;89.10;;;;;;5084654;28;20814;-68
2021/04/29 10:34:37;;;;;;;9.73;6.00;;;18.30;90.00;;;;;;5083686;28;20485;-68
2021/04/29 10:37:14;;;;;;;6.57;5.73;;;17.90;91.20;;;;;;5084559;28;20458;-68
2021/04/29 10:39:51;;;;;;;6.80;5.60;;;17.40;91.30;;;;;;5084469;28;20481;-69
2021/04/29 10:42:18;;;;;;;5.00;4.60;;;17.20;91.50;;;;;;5040926;28;20494;-70
2021/04/29 10:44:47;;;;;;;5.97;5.17;;;17.00;92.10;;;;;;5059765;28;20458;-70
2021/04/29 10:47:23;;;;;;;5.83;5.33;;;16.80;92.40;;;;;;5062148;28;20466;-70
2021/04/29 10:49:51;;;;;;;5.80;5.00;;;17.00;92.70;;;;;;5063848;28;21355;-70
2021/04/29 10:52:18;;;;;;;7.13;5.17;;;17.30;92.00;;;;;;5053008;28;20451;-70
2021/04/29 10:54:52;;;;;;;6.13;5.50;;;18.00;90.90;;;;;;5058677;28;20484;-70
2021/04/29 10:57:19;;;;;;;5.60;4.93;;;18.20;90.10;;;;;;5063096;28;20958;-70
2021/04/29 10:59:48;;;;;;;8.70;5.47;;;18.50;91.10;;;;;;5063495;28;21005;-70
2021/04/29 11:02:25;;;;;;;6.10;5.00;;;18.90;89.90;;;;;;5062920;28;20494;-70
2021/04/29 11:04:54;;;;;;;5.10;4.57;;;18.40;90.10;;;;;;5062879;28;20537;-70
2021/04/29 11:07:22;;;;;;;5.70;4.27;;;18.50;88.50;;;;;;5061799;28;20516;-70
2021/04/29 11:10:00;;;;;;;5.07;4.67;;;18.40;88.50;;;;;;5066760;28;20893;-70
2021/04/29 11:12:47;;;;;;;5.00;3.93;;;18.60;87.20;;;;;;5057341;28;20466;-70
2021/04/29 11:15:22;;;;;;;5.33;4.10;;;19.60;85.40;;;;;;5067099;28;20949;-70
2021/04/29 11:18:04;;;;;;;4.70;4.30;;;20.20;84.50;;;;;;5066517;28;20458;-70
2021/04/29 11:20:42;;;;;;;5.43;4.10;;;19.90;81.70;;;;;;5066599;28;20493;-70
2021/04/29 11:23:09;;;;;;;5.40;4.57;;;19.50;82.80;;;;;;5067967;28;20450;-70
2021/04/29 11:25:38;;;;;;;4.23;3.80;;;19.00;84.70;;;;;;5068448;28;20458;-70
2021/04/29 11:28:05;;;;;;;3.20;2.90;;;19.30;83.30;;;;;;5066581;28;20541;-70
2021/04/29 11:30:31;;;;;;;3.50;3.00;;;20.00;78.50;;;;;;5067857;28;20527;-70
2021/04/29 11:32:59;;;;;;;4.30;3.63;;;19.90;77.30;;;;;;5068308;28;20454;-70
2021/04/29 11:35:27;;;;;;;4.70;3.57;;;19.90;77.10;;;;;;5068158;28;20462;-70
2021/04/29 11:37:54;;;;;;;3.90;3.57;;;20.70;80.80;;;;;;5068718;28;20462;-70
2021/04/29 11:40:21;;;;;;;4.43;3.73;;;21.60;78.40;;;;;;5066584;28;20501;-70
2021/04/29 11:42:50;;;;;;;5.47;3.90;;;22.10;82.10;;;;;;5067985;28;20458;-70
2021/04/29 11:45:18;;;;;;;5.37;4.23;;;21.30;81.10;;;;;;5067646;28;20462;-70
2021/04/29 11:47:57;;;;;;;7.83;3.70;;;20.20;83.20;;;;;;5068091;28;20905;-70
2021/04/29 11:50:25;;;;;;;4.40;4.00;;;18.90;83.50;;;;;;5067418;28;20474;-70
2021/04/29 11:53:08;;;;;;;3.93;3.63;;;17.80;86.10;;;;;;5067629;28;20526;-70
2021/04/29 11:55:36;;;;;;;5.93;3.70;;;17.20;88.00;;;;;;5067662;28;20462;-70
2021/04/29 11:58:05;;;;;;;4.73;3.50;;;16.80;88.70;;;;;;5067212;28;20464;-70
2021/04/29 12:00:34;;;;;;;4.50;3.83;;;17.00;89.70;;;;;;5065196;28;20490;-70
2021/04/29 12:03:03;;;;;;;6.27;3.77;;;17.40;87.50;;;;;;5066955;28;20558;-70
2021/04/29 12:05:32;;;;;;;5.90;3.70;;;18.10;87.60;;;;;;5067706;28;20473;-70
2021/04/29 12:07:59;;;;;;;5.10;3.80;;;18.70;85.30;;;;;;5067433;28;20495;-70
2021/04/29 12:10:26;;;;;;;5.00;3.60;;;19.10;88.40;;;;;;5065792;28;20483;-70
2021/04/29 12:12:53;;;;;;;3.73;3.43;;;19.50;83.50;;;;;;5067499;28;20462;-70
2021/04/29 12:15:19;;;;;;;4.87;3.77;;;19.00;83.70;;;;;;5067134;28;20462;-70
2021/04/29 12:17:45;;;;;;;3.90;3.50;;;18.50;82.70;;;;;;5068539;28;20515;-70
2021/04/29 12:20:12;;;;;;;4.23;3.30;;;18.10;83.50;;;;;;5065380;28;20976;-70
2021/04/29 12:22:40;;;;;;;3.80;3.37;;;17.80;86.10;;;;;;5058845;28;20459;-70
2021/04/29 12:25:18;;;;;;;3.97;3.30;;;17.60;86.10;;;;;;5066062;28;20470;-70
2021/04/29 12:27:48;;;;;;;3.97;3.57;;;17.30;86.60;;;;;;5066091;28;20481;-69
2021/04/29 12:30:15;;;;;;;6.07;3.37;;;17.00;86.80;;;;;;5065515;28;20575;-70
2021/04/29 12:32:45;;;;;;;5.90;3.33;;;16.90;88.10;;;;;;5062391;28;20467;-69
2021/04/29 12:35:13;;;;;;;3.20;3.00;;;16.70;87.80;;;;;;5064866;28;20549;-70
2021/04/29 12:37:50;;;;;;;5.20;3.60;;;16.50;89.00;;;;;;5065640;28;20545;-70
2021/04/29 12:40:24;;;;;;;4.60;3.30;;;16.40;88.10;;;;;;5064128;28;20474;-69
2021/04/29 12:42:52;;;;;;;3.70;3.40;;;16.20;88.50;;;;;;5064088;28;21024;-70
2021/04/29 12:45:18;;;;;;;4.50;3.67;;;16.00;89.80;;;;;;5065342;28;20466;-70
2021/04/29 12:47:54;;;;;;;4.37;3.97;;;16.00;90.50;;;;;;5064906;28;20512;-70
2021/04/29 12:50:22;;;;;;;5.23;4.10;;;15.90;90.90;;;;;;5062341;28;20514;-69